sensor_id;sensor_type;location;lat;lon;timestamp;P1;durP1;ratioP1;P2;durP2;ratioP2
42036;SDS011;75222;52.004;5.908;2024-01-30T00:01:53;4.55;;;3.28;;
42036;SDS011;75222;52.004;5.908;2024-01-30T00:04:18;4.78;;;3.35;;
42036;SDS011;75222;52.004;5.908;2024-01-30T00:06:44;4.35;;;3.00;;
42036;SDS011;75222;52.004;5.908;2024-01-30T00:09:10;4.95;;;3.28;;
42036;SDS011;75222;52.004;5.908;2024-01-30T00:11:36;4.05;;;2.65;;
42036;SDS011;75222;52.004;5.908;2024-01-30T00:14:03;5.70;;;3.10;;
42036;SDS011;75222;52.004;5.908;2024-01-30T00:16:28;3.92;;;2.67;;
42036;SDS011;75222;52.004;5.908;2024-01-30T00:18:54;4.40;;;3.20;;
42036;SDS011;75222;52.004;5.908;2024-01-30T00:21:20;4.30;;;3.00;;
42036;SDS011;75222;52.004;5.908;2024-01-30T00:23:49;4.68;;;2.90;;
42036;SDS011;75222;52.004;5.908;2024-01-30T00:26:15;3.92;;;2.80;;
42036;SDS011;75222;52.004;5.908;2024-01-30T00:28:41;5.60;;;3.20;;
42036;SDS011;75222;52.004;5.908;2024-01-30T00:31:07;4.60;;;3.15;;
42036;SDS011;75222;52.004;5.908;2024-01-30T00:33:32;3.53;;;2.60;;
42036;SDS011;75222;52.004;5.908;2024-01-30T00:35:58;3.03;;;2.50;;
42036;SDS011;75222;52.004;5.908;2024-01-30T00:38:24;3.78;;;2.60;;
42036;SDS011;75222;52.004;5.908;2024-01-30T00:40:49;3.25;;;2.30;;
42036;SDS011;75222;52.004;5.908;2024-01-30T00:43:15;4.28;;;2.72;;
42036;SDS011;75222;52.004;5.908;2024-01-30T00:45:41;4.40;;;2.47;;
42036;SDS011;75222;52.004;5.908;2024-01-30T00:48:08;3.22;;;2.42;;
42036;SDS011;75222;52.004;5.908;2024-01-30T00:50:34;2.83;;;2.30;;
42036;SDS011;75222;52.004;5.908;2024-01-30T00:52:59;3.13;;;2.30;;
42036;SDS011;75222;52.004;5.908;2024-01-30T00:55:25;5.55;;;2.60;;
42036;SDS011;75222;52.004;5.908;2024-01-30T00:57:50;3.45;;;2.60;;
42036;SDS011;75222;52.004;5.908;2024-01-30T01:00:16;4.18;;;2.90;;
42036;SDS011;75222;52.004;5.908;2024-01-30T01:02:42;3.65;;;2.80;;
42036;SDS011;75222;52.004;5.908;2024-01-30T01:05:08;3.58;;;2.53;;
42036;SDS011;75222;52.004;5.908;2024-01-30T01:07:34;3.42;;;2.30;;
42036;SDS011;75222;52.004;5.908;2024-01-30T01:09:59;5.05;;;2.97;;
42036;SDS011;75222;52.004;5.908;2024-01-30T01:12:25;3.40;;;2.58;;
42036;SDS011;75222;52.004;5.908;2024-01-30T01:14:50;3.83;;;2.40;;
42036;SDS011;75222;52.004;5.908;2024-01-30T01:17:16;2.67;;;2.17;;
42036;SDS011;75222;52.004;5.908;2024-01-30T01:19:43;2.92;;;2.20;;
42036;SDS011;75222;52.004;5.908;2024-01-30T01:22:09;4.15;;;2.63;;
42036;SDS011;75222;52.004;5.908;2024-01-30T01:24:35;3.85;;;2.90;;
42036;SDS011;75222;52.004;5.908;2024-01-30T01:27:01;5.60;;;2.90;;
42036;SDS011;75222;52.004;5.908;2024-01-30T01:29:26;5.38;;;2.80;;
42036;SDS011;75222;52.004;5.908;2024-01-30T01:31:57;3.92;;;2.85;;
42036;SDS011;75222;52.004;5.908;2024-01-30T01:34:23;4.47;;;2.72;;
42036;SDS011;75222;52.004;5.908;2024-01-30T01:36:49;4.03;;;2.50;;
42036;SDS011;75222;52.004;5.908;2024-01-30T01:39:15;3.00;;;2.30;;
42036;SDS011;75222;52.004;5.908;2024-01-30T01:41:40;3.38;;;2.38;;
42036;SDS011;75222;52.004;5.908;2024-01-30T01:44:06;3.00;;;1.90;;
42036;SDS011;75222;52.004;5.908;2024-01-30T01:46:33;2.67;;;1.95;;
42036;SDS011;75222;52.004;5.908;2024-01-30T01:48:59;4.07;;;1.80;;
42036;SDS011;75222;52.004;5.908;2024-01-30T01:51:27;2.33;;;1.80;;
42036;SDS011;75222;52.004;5.908;2024-01-30T01:53:55;3.70;;;2.50;;
42036;SDS011;75222;52.004;5.908;2024-01-30T01:56:22;3.55;;;2.47;;
42036;SDS011;75222;52.004;5.908;2024-01-30T01:58:49;3.35;;;2.40;;
42036;SDS011;75222;52.004;5.908;2024-01-30T02:01:16;2.92;;;2.05;;
42036;SDS011;75222;52.004;5.908;2024-01-30T02:03:45;3.20;;;2.30;;
42036;SDS011;75222;52.004;5.908;2024-01-30T02:06:12;2.47;;;1.90;;
42036;SDS011;75222;52.004;5.908;2024-01-30T02:08:41;2.60;;;2.00;;
42036;SDS011;75222;52.004;5.908;2024-01-30T02:11:07;3.15;;;2.10;;
42036;SDS011;75222;52.004;5.908;2024-01-30T02:13:33;3.75;;;1.90;;
42036;SDS011;75222;52.004;5.908;2024-01-30T02:15:59;2.15;;;1.95;;
42036;SDS011;75222;52.004;5.908;2024-01-30T02:18:25;4.55;;;2.60;;
42036;SDS011;75222;52.004;5.908;2024-01-30T02:20:52;2.88;;;2.20;;
42036;SDS011;75222;52.004;5.908;2024-01-30T02:23:19;3.40;;;2.08;;
42036;SDS011;75222;52.004;5.908;2024-01-30T02:25:45;3.05;;;2.20;;
42036;SDS011;75222;52.004;5.908;2024-01-30T02:28:11;3.42;;;2.65;;
42036;SDS011;75222;52.004;5.908;2024-01-30T02:30:38;4.13;;;2.40;;
42036;SDS011;75222;52.004;5.908;2024-01-30T02:33:04;3.13;;;2.10;;
42036;SDS011;75222;52.004;5.908;2024-01-30T02:35:30;2.67;;;1.95;;
42036;SDS011;75222;52.004;5.908;2024-01-30T02:37:55;3.15;;;2.30;;
42036;SDS011;75222;52.004;5.908;2024-01-30T02:40:21;2.65;;;2.08;;
42036;SDS011;75222;52.004;5.908;2024-01-30T02:42:46;2.47;;;2.00;;
42036;SDS011;75222;52.004;5.908;2024-01-30T02:45:12;2.95;;;2.25;;
42036;SDS011;75222;52.004;5.908;2024-01-30T02:47:41;3.35;;;2.30;;
42036;SDS011;75222;52.004;5.908;2024-01-30T02:50:06;3.60;;;2.80;;
42036;SDS011;75222;52.004;5.908;2024-01-30T02:52:32;3.00;;;2.20;;
42036;SDS011;75222;52.004;5.908;2024-01-30T02:54:58;3.20;;;2.42;;
42036;SDS011;75222;52.004;5.908;2024-01-30T02:57:24;3.20;;;2.58;;
42036;SDS011;75222;52.004;5.908;2024-01-30T02:59:49;3.55;;;2.40;;
42036;SDS011;75222;52.004;5.908;2024-01-30T03:02:15;2.83;;;2.15;;
42036;SDS011;75222;52.004;5.908;2024-01-30T03:04:41;5.00;;;2.40;;
42036;SDS011;75222;52.004;5.908;2024-01-30T03:07:07;3.67;;;2.40;;
42036;SDS011;75222;52.004;5.908;2024-01-30T03:09:33;4.25;;;2.70;;
42036;SDS011;75222;52.004;5.908;2024-01-30T03:11:58;3.55;;;2.53;;
42036;SDS011;75222;52.004;5.908;2024-01-30T03:14:24;3.85;;;2.88;;
42036;SDS011;75222;52.004;5.908;2024-01-30T03:16:49;3.88;;;2.88;;
42036;SDS011;75222;52.004;5.908;2024-01-30T03:19:18;4.28;;;2.72;;
42036;SDS011;75222;52.004;5.908;2024-01-30T03:21:44;3.10;;;2.53;;
42036;SDS011;75222;52.004;5.908;2024-01-30T03:24:09;4.57;;;2.67;;
42036;SDS011;75222;52.004;5.908;2024-01-30T03:26:35;3.83;;;2.75;;
42036;SDS011;75222;52.004;5.908;2024-01-30T03:29:01;3.55;;;2.50;;
42036;SDS011;75222;52.004;5.908;2024-01-30T03:31:26;3.90;;;2.40;;
42036;SDS011;75222;52.004;5.908;2024-01-30T03:33:52;4.20;;;2.60;;
42036;SDS011;75222;52.004;5.908;2024-01-30T03:36:17;3.55;;;2.45;;
42036;SDS011;75222;52.004;5.908;2024-01-30T03:38:43;3.92;;;2.60;;
42036;SDS011;75222;52.004;5.908;2024-01-30T03:41:08;3.70;;;2.80;;
42036;SDS011;75222;52.004;5.908;2024-01-30T03:43:35;3.75;;;2.42;;
42036;SDS011;75222;52.004;5.908;2024-01-30T03:46:01;3.92;;;2.35;;
42036;SDS011;75222;52.004;5.908;2024-01-30T03:48:27;3.50;;;2.40;;
42036;SDS011;75222;52.004;5.908;2024-01-30T03:50:53;3.58;;;2.50;;
42036;SDS011;75222;52.004;5.908;2024-01-30T03:53:18;3.00;;;2.20;;
42036;SDS011;75222;52.004;5.908;2024-01-30T03:55:44;3.10;;;2.20;;
42036;SDS011;75222;52.004;5.908;2024-01-30T03:58:09;3.08;;;2.28;;
42036;SDS011;75222;52.004;5.908;2024-01-30T04:00:35;4.30;;;2.95;;
42036;SDS011;75222;52.004;5.908;2024-01-30T04:03:01;4.60;;;3.00;;
42036;SDS011;75222;52.004;5.908;2024-01-30T04:05:26;4.57;;;3.40;;
42036;SDS011;75222;52.004;5.908;2024-01-30T04:07:52;3.90;;;2.92;;
42036;SDS011;75222;52.004;5.908;2024-01-30T04:10:17;5.63;;;3.30;;
42036;SDS011;75222;52.004;5.908;2024-01-30T04:12:43;4.97;;;3.10;;
42036;SDS011;75222;52.004;5.908;2024-01-30T04:15:08;5.50;;;3.35;;
42036;SDS011;75222;52.004;5.908;2024-01-30T04:17:34;4.82;;;3.20;;
42036;SDS011;75222;52.004;5.908;2024-01-30T04:20:00;4.85;;;3.05;;
42036;SDS011;75222;52.004;5.908;2024-01-30T04:22:25;5.78;;;3.40;;
42036;SDS011;75222;52.004;5.908;2024-01-30T04:24:51;5.10;;;3.30;;
42036;SDS011;75222;52.004;5.908;2024-01-30T04:27:16;4.97;;;3.30;;
42036;SDS011;75222;52.004;5.908;2024-01-30T04:29:42;3.72;;;2.63;;
42036;SDS011;75222;52.004;5.908;2024-01-30T04:32:07;4.85;;;2.72;;
42036;SDS011;75222;52.004;5.908;2024-01-30T04:34:34;3.08;;;2.10;;
42036;SDS011;75222;52.004;5.908;2024-01-30T04:37:00;3.22;;;2.40;;
42036;SDS011;75222;52.004;5.908;2024-01-30T04:39:26;5.40;;;3.20;;
42036;SDS011;75222;52.004;5.908;2024-01-30T04:41:51;3.75;;;2.50;;
42036;SDS011;75222;52.004;5.908;2024-01-30T04:44:17;5.18;;;3.20;;
42036;SDS011;75222;52.004;5.908;2024-01-30T04:46:42;4.55;;;3.08;;
42036;SDS011;75222;52.004;5.908;2024-01-30T04:49:08;5.75;;;3.75;;
42036;SDS011;75222;52.004;5.908;2024-01-30T04:51:33;4.75;;;3.17;;
42036;SDS011;75222;52.004;5.908;2024-01-30T04:53:59;5.97;;;3.08;;
42036;SDS011;75222;52.004;5.908;2024-01-30T04:56:25;3.88;;;2.78;;
42036;SDS011;75222;52.004;5.908;2024-01-30T04:58:50;5.13;;;3.20;;
42036;SDS011;75222;52.004;5.908;2024-01-30T05:01:16;4.10;;;2.42;;
42036;SDS011;75222;52.004;5.908;2024-01-30T05:03:42;6.20;;;2.78;;
42036;SDS011;75222;52.004;5.908;2024-01-30T05:06:07;5.20;;;2.80;;
42036;SDS011;75222;52.004;5.908;2024-01-30T05:08:33;5.90;;;4.05;;
42036;SDS011;75222;52.004;5.908;2024-01-30T05:11:01;4.20;;;2.88;;
42036;SDS011;75222;52.004;5.908;2024-01-30T05:13:28;5.55;;;3.58;;
42036;SDS011;75222;52.004;5.908;2024-01-30T05:15:57;5.15;;;3.28;;
42036;SDS011;75222;52.004;5.908;2024-01-30T05:18:22;4.47;;;2.78;;
42036;SDS011;75222;52.004;5.908;2024-01-30T05:20:49;6.22;;;3.38;;
42036;SDS011;75222;52.004;5.908;2024-01-30T05:23:15;5.15;;;3.40;;
42036;SDS011;75222;52.004;5.908;2024-01-30T05:25:41;6.40;;;4.03;;
42036;SDS011;75222;52.004;5.908;2024-01-30T05:28:06;5.95;;;3.92;;
42036;SDS011;75222;52.004;5.908;2024-01-30T05:30:32;7.63;;;4.68;;
42036;SDS011;75222;52.004;5.908;2024-01-30T05:32:57;7.28;;;4.38;;
42036;SDS011;75222;52.004;5.908;2024-01-30T05:35:23;7.90;;;4.93;;
42036;SDS011;75222;52.004;5.908;2024-01-30T05:37:48;7.03;;;3.92;;
42036;SDS011;75222;52.004;5.908;2024-01-30T05:40:15;5.57;;;3.90;;
42036;SDS011;75222;52.004;5.908;2024-01-30T05:42:41;6.10;;;4.32;;
42036;SDS011;75222;52.004;5.908;2024-01-30T05:45:06;9.57;;;5.45;;
42036;SDS011;75222;52.004;5.908;2024-01-30T05:47:33;7.53;;;4.88;;
42036;SDS011;75222;52.004;5.908;2024-01-30T05:49:59;6.10;;;3.90;;
42036;SDS011;75222;52.004;5.908;2024-01-30T05:52:24;5.15;;;3.40;;
42036;SDS011;75222;52.004;5.908;2024-01-30T05:54:50;4.57;;;2.95;;
42036;SDS011;75222;52.004;5.908;2024-01-30T05:57:16;4.38;;;2.72;;
42036;SDS011;75222;52.004;5.908;2024-01-30T05:59:42;5.57;;;3.63;;
42036;SDS011;75222;52.004;5.908;2024-01-30T06:02:09;5.45;;;3.63;;
42036;SDS011;75222;52.004;5.908;2024-01-30T06:04:35;4.03;;;2.97;;
42036;SDS011;75222;52.004;5.908;2024-01-30T06:07:01;5.55;;;3.40;;
42036;SDS011;75222;52.004;5.908;2024-01-30T06:09:27;5.82;;;3.47;;
42036;SDS011;75222;52.004;5.908;2024-01-30T06:11:54;5.93;;;3.88;;
42036;SDS011;75222;52.004;5.908;2024-01-30T06:14:19;6.25;;;4.88;;
42036;SDS011;75222;52.004;5.908;2024-01-30T06:16:45;7.47;;;4.63;;
42036;SDS011;75222;52.004;5.908;2024-01-30T06:19:11;9.70;;;5.68;;
42036;SDS011;75222;52.004;5.908;2024-01-30T06:21:36;6.32;;;4.10;;
42036;SDS011;75222;52.004;5.908;2024-01-30T06:24:03;5.43;;;3.55;;
42036;SDS011;75222;52.004;5.908;2024-01-30T06:26:29;6.97;;;4.28;;
42036;SDS011;75222;52.004;5.908;2024-01-30T06:28:54;6.05;;;3.92;;
42036;SDS011;75222;52.004;5.908;2024-01-30T06:31:20;5.47;;;4.05;;
42036;SDS011;75222;52.004;5.908;2024-01-30T06:33:49;6.38;;;3.90;;
42036;SDS011;75222;52.004;5.908;2024-01-30T06:36:15;5.75;;;3.22;;
42036;SDS011;75222;52.004;5.908;2024-01-30T06:38:40;5.20;;;3.40;;
42036;SDS011;75222;52.004;5.908;2024-01-30T06:41:06;6.07;;;4.10;;
42036;SDS011;75222;52.004;5.908;2024-01-30T06:43:32;5.25;;;3.60;;
42036;SDS011;75222;52.004;5.908;2024-01-30T06:45:58;8.18;;;5.05;;
42036;SDS011;75222;52.004;5.908;2024-01-30T06:48:24;7.93;;;4.88;;
42036;SDS011;75222;52.004;5.908;2024-01-30T06:50:50;9.07;;;4.53;;
42036;SDS011;75222;52.004;5.908;2024-01-30T06:53:18;5.90;;;3.50;;
42036;SDS011;75222;52.004;5.908;2024-01-30T06:55:44;6.22;;;3.72;;
42036;SDS011;75222;52.004;5.908;2024-01-30T06:58:10;6.40;;;3.67;;
42036;SDS011;75222;52.004;5.908;2024-01-30T07:00:35;7.82;;;4.35;;
42036;SDS011;75222;52.004;5.908;2024-01-30T07:03:01;5.18;;;3.38;;
42036;SDS011;75222;52.004;5.908;2024-01-30T07:05:26;5.00;;;3.50;;
42036;SDS011;75222;52.004;5.908;2024-01-30T07:07:52;5.63;;;4.05;;
42036;SDS011;75222;52.004;5.908;2024-01-30T07:10:18;5.80;;;4.18;;
42036;SDS011;75222;52.004;5.908;2024-01-30T07:12:43;9.27;;;5.68;;
42036;SDS011;75222;52.004;5.908;2024-01-30T07:15:09;10.02;;;4.55;;
42036;SDS011;75222;52.004;5.908;2024-01-30T07:17:35;8.13;;;5.35;;
42036;SDS011;75222;52.004;5.908;2024-01-30T07:20:01;7.60;;;4.70;;
42036;SDS011;75222;52.004;5.908;2024-01-30T07:22:28;7.50;;;4.50;;
42036;SDS011;75222;52.004;5.908;2024-01-30T07:24:55;6.00;;;3.63;;
42036;SDS011;75222;52.004;5.908;2024-01-30T07:27:21;5.60;;;3.72;;
42036;SDS011;75222;52.004;5.908;2024-01-30T07:29:46;5.93;;;3.50;;
42036;SDS011;75222;52.004;5.908;2024-01-30T07:32:12;6.68;;;4.88;;
42036;SDS011;75222;52.004;5.908;2024-01-30T07:34:37;6.00;;;3.95;;
42036;SDS011;75222;52.004;5.908;2024-01-30T07:37:03;8.13;;;4.43;;
42036;SDS011;75222;52.004;5.908;2024-01-30T07:39:28;6.28;;;3.80;;
42036;SDS011;75222;52.004;5.908;2024-01-30T07:41:54;6.70;;;4.32;;
42036;SDS011;75222;52.004;5.908;2024-01-30T07:44:20;6.40;;;4.40;;
42036;SDS011;75222;52.004;5.908;2024-01-30T07:46:45;5.70;;;3.67;;
42036;SDS011;75222;52.004;5.908;2024-01-30T07:49:11;6.70;;;4.15;;
42036;SDS011;75222;52.004;5.908;2024-01-30T07:51:39;9.20;;;5.35;;
42036;SDS011;75222;52.004;5.908;2024-01-30T07:54:14;8.75;;;4.40;;
42036;SDS011;75222;52.004;5.908;2024-01-30T07:56:39;7.05;;;4.85;;
42036;SDS011;75222;52.004;5.908;2024-01-30T07:59:05;5.95;;;3.92;;
42036;SDS011;75222;52.004;5.908;2024-01-30T08:01:34;6.47;;;3.70;;
42036;SDS011;75222;52.004;5.908;2024-01-30T08:04:00;8.35;;;3.58;;
42036;SDS011;75222;52.004;5.908;2024-01-30T08:06:25;4.72;;;3.20;;
42036;SDS011;75222;52.004;5.908;2024-01-30T08:08:51;5.55;;;3.58;;
42036;SDS011;75222;52.004;5.908;2024-01-30T08:11:19;6.00;;;4.05;;
42036;SDS011;75222;52.004;5.908;2024-01-30T08:13:45;7.25;;;4.35;;
42036;SDS011;75222;52.004;5.908;2024-01-30T08:16:11;4.90;;;3.47;;
42036;SDS011;75222;52.004;5.908;2024-01-30T08:18:37;6.50;;;3.67;;
42036;SDS011;75222;52.004;5.908;2024-01-30T08:21:03;6.40;;;3.85;;
42036;SDS011;75222;52.004;5.908;2024-01-30T08:23:29;4.78;;;2.80;;
42036;SDS011;75222;52.004;5.908;2024-01-30T08:25:55;3.85;;;2.45;;
42036;SDS011;75222;52.004;5.908;2024-01-30T08:28:20;3.17;;;2.25;;
42036;SDS011;75222;52.004;5.908;2024-01-30T08:30:46;6.40;;;3.03;;
42036;SDS011;75222;52.004;5.908;2024-01-30T08:33:11;5.93;;;3.60;;
42036;SDS011;75222;52.004;5.908;2024-01-30T08:35:37;4.53;;;2.83;;
42036;SDS011;75222;52.004;5.908;2024-01-30T08:38:03;4.40;;;3.25;;
42036;SDS011;75222;52.004;5.908;2024-01-30T08:40:29;4.95;;;3.40;;
42036;SDS011;75222;52.004;5.908;2024-01-30T08:42:55;4.55;;;3.25;;
42036;SDS011;75222;52.004;5.908;2024-01-30T08:45:21;5.53;;;3.35;;
42036;SDS011;75222;52.004;5.908;2024-01-30T08:47:46;4.78;;;3.20;;
42036;SDS011;75222;52.004;5.908;2024-01-30T08:50:12;5.03;;;3.40;;
42036;SDS011;75222;52.004;5.908;2024-01-30T08:52:38;5.25;;;3.70;;
42036;SDS011;75222;52.004;5.908;2024-01-30T08:55:03;3.90;;;2.97;;
42036;SDS011;75222;52.004;5.908;2024-01-30T08:57:29;4.18;;;2.95;;
42036;SDS011;75222;52.004;5.908;2024-01-30T08:59:55;5.65;;;3.58;;
42036;SDS011;75222;52.004;5.908;2024-01-30T09:02:21;4.57;;;3.10;;
42036;SDS011;75222;52.004;5.908;2024-01-30T09:04:47;4.45;;;3.13;;
42036;SDS011;75222;52.004;5.908;2024-01-30T09:07:12;7.15;;;4.55;;
42036;SDS011;75222;52.004;5.908;2024-01-30T09:09:39;4.95;;;3.83;;
42036;SDS011;75222;52.004;5.908;2024-01-30T09:12:07;6.25;;;4.03;;
42036;SDS011;75222;52.004;5.908;2024-01-30T09:14:37;5.07;;;3.05;;
42036;SDS011;75222;52.004;5.908;2024-01-30T09:17:03;5.32;;;3.25;;
42036;SDS011;75222;52.004;5.908;2024-01-30T09:19:30;5.88;;;3.55;;
42036;SDS011;75222;52.004;5.908;2024-01-30T09:21:55;4.70;;;3.05;;
42036;SDS011;75222;52.004;5.908;2024-01-30T09:24:21;5.00;;;2.92;;
42036;SDS011;75222;52.004;5.908;2024-01-30T09:26:46;5.45;;;3.40;;
42036;SDS011;75222;52.004;5.908;2024-01-30T09:29:12;8.38;;;4.90;;
42036;SDS011;75222;52.004;5.908;2024-01-30T09:31:37;11.02;;;6.47;;
42036;SDS011;75222;52.004;5.908;2024-01-30T09:34:03;6.95;;;4.82;;
42036;SDS011;75222;52.004;5.908;2024-01-30T09:36:28;7.05;;;4.80;;
42036;SDS011;75222;52.004;5.908;2024-01-30T09:38:54;6.78;;;4.50;;
42036;SDS011;75222;52.004;5.908;2024-01-30T09:41:20;7.15;;;4.55;;
42036;SDS011;75222;52.004;5.908;2024-01-30T09:43:49;6.32;;;4.15;;
42036;SDS011;75222;52.004;5.908;2024-01-30T09:46:16;6.13;;;3.92;;
42036;SDS011;75222;52.004;5.908;2024-01-30T09:48:43;6.13;;;3.42;;
42036;SDS011;75222;52.004;5.908;2024-01-30T09:51:11;6.20;;;3.70;;
42036;SDS011;75222;52.004;5.908;2024-01-30T09:53:39;6.00;;;4.20;;
42036;SDS011;75222;52.004;5.908;2024-01-30T09:56:05;5.05;;;3.50;;
42036;SDS011;75222;52.004;5.908;2024-01-30T09:58:31;5.68;;;3.33;;
42036;SDS011;75222;52.004;5.908;2024-01-30T10:00:56;7.22;;;4.40;;
42036;SDS011;75222;52.004;5.908;2024-01-30T10:03:22;5.80;;;3.78;;
42036;SDS011;75222;52.004;5.908;2024-01-30T10:05:51;6.20;;;3.70;;
42036;SDS011;75222;52.004;5.908;2024-01-30T10:08:19;7.03;;;3.83;;
42036;SDS011;75222;52.004;5.908;2024-01-30T10:10:46;4.72;;;3.38;;
42036;SDS011;75222;52.004;5.908;2024-01-30T10:13:12;5.00;;;3.67;;
42036;SDS011;75222;52.004;5.908;2024-01-30T10:15:38;4.07;;;2.83;;
42036;SDS011;75222;52.004;5.908;2024-01-30T10:18:05;4.05;;;2.50;;
42036;SDS011;75222;52.004;5.908;2024-01-30T10:20:31;3.33;;;2.47;;
42036;SDS011;75222;52.004;5.908;2024-01-30T10:22:57;3.10;;;2.28;;
42036;SDS011;75222;52.004;5.908;2024-01-30T10:25:23;5.60;;;3.10;;
42036;SDS011;75222;52.004;5.908;2024-01-30T10:27:53;3.55;;;2.67;;
42036;SDS011;75222;52.004;5.908;2024-01-30T10:30:22;3.78;;;2.50;;
42036;SDS011;75222;52.004;5.908;2024-01-30T10:32:47;3.70;;;2.80;;
42036;SDS011;75222;52.004;5.908;2024-01-30T10:35:13;4.07;;;3.05;;
42036;SDS011;75222;52.004;5.908;2024-01-30T10:37:39;4.18;;;2.45;;
42036;SDS011;75222;52.004;5.908;2024-01-30T10:40:08;4.22;;;2.85;;
42036;SDS011;75222;52.004;5.908;2024-01-30T10:42:37;3.67;;;2.70;;
42036;SDS011;75222;52.004;5.908;2024-01-30T10:45:08;3.47;;;2.65;;
42036;SDS011;75222;52.004;5.908;2024-01-30T10:47:37;5.70;;;3.30;;
42036;SDS011;75222;52.004;5.908;2024-01-30T10:50:05;5.22;;;2.75;;
42036;SDS011;75222;52.004;5.908;2024-01-30T10:52:33;4.38;;;2.80;;
42036;SDS011;75222;52.004;5.908;2024-01-30T10:54:59;5.03;;;2.97;;
42036;SDS011;75222;52.004;5.908;2024-01-30T10:57:26;3.88;;;2.85;;
42036;SDS011;75222;52.004;5.908;2024-01-30T10:59:52;4.00;;;2.67;;
42036;SDS011;75222;52.004;5.908;2024-01-30T11:02:21;3.40;;;2.38;;
42036;SDS011;75222;52.004;5.908;2024-01-30T11:04:49;3.63;;;2.13;;
42036;SDS011;75222;52.004;5.908;2024-01-30T11:07:15;4.90;;;2.85;;
42036;SDS011;75222;52.004;5.908;2024-01-30T11:09:48;4.07;;;2.60;;
42036;SDS011;75222;52.004;5.908;2024-01-30T11:12:14;6.40;;;3.30;;
42036;SDS011;75222;52.004;5.908;2024-01-30T11:14:40;5.03;;;3.25;;
42036;SDS011;75222;52.004;5.908;2024-01-30T11:17:05;5.10;;;3.15;;
42036;SDS011;75222;52.004;5.908;2024-01-30T11:19:31;4.45;;;3.25;;
42036;SDS011;75222;52.004;5.908;2024-01-30T11:21:58;4.32;;;2.90;;
42036;SDS011;75222;52.004;5.908;2024-01-30T11:24:25;4.93;;;2.72;;
42036;SDS011;75222;52.004;5.908;2024-01-30T11:26:56;5.85;;;3.67;;
42036;SDS011;75222;52.004;5.908;2024-01-30T11:29:26;5.78;;;3.42;;
42036;SDS011;75222;52.004;5.908;2024-01-30T11:31:57;6.32;;;3.50;;
42036;SDS011;75222;52.004;5.908;2024-01-30T11:34:23;6.47;;;3.85;;
42036;SDS011;75222;52.004;5.908;2024-01-30T11:36:53;7.18;;;4.03;;
42036;SDS011;75222;52.004;5.908;2024-01-30T11:39:24;5.88;;;3.58;;
42036;SDS011;75222;52.004;5.908;2024-01-30T11:41:51;6.32;;;4.13;;
42036;SDS011;75222;52.004;5.908;2024-01-30T11:44:18;6.85;;;4.15;;
42036;SDS011;75222;52.004;5.908;2024-01-30T11:46:45;7.15;;;4.25;;
42036;SDS011;75222;52.004;5.908;2024-01-30T11:49:12;5.82;;;3.67;;
42036;SDS011;75222;52.004;5.908;2024-01-30T11:51:38;7.15;;;4.55;;
42036;SDS011;75222;52.004;5.908;2024-01-30T11:54:04;5.40;;;3.40;;
42036;SDS011;75222;52.004;5.908;2024-01-30T11:56:29;7.50;;;3.78;;
42036;SDS011;75222;52.004;5.908;2024-01-30T11:58:55;5.82;;;4.00;;
42036;SDS011;75222;52.004;5.908;2024-01-30T12:01:20;9.73;;;4.80;;
42036;SDS011;75222;52.004;5.908;2024-01-30T12:03:50;6.75;;;4.32;;
42036;SDS011;75222;52.004;5.908;2024-01-30T12:06:15;7.00;;;4.28;;
42036;SDS011;75222;52.004;5.908;2024-01-30T12:08:41;8.85;;;4.60;;
42036;SDS011;75222;52.004;5.908;2024-01-30T12:11:07;7.13;;;4.18;;
42036;SDS011;75222;52.004;5.908;2024-01-30T12:13:33;7.30;;;4.20;;
42036;SDS011;75222;52.004;5.908;2024-01-30T12:15:59;6.68;;;3.53;;
42036;SDS011;75222;52.004;5.908;2024-01-30T12:18:26;5.82;;;3.60;;
42036;SDS011;75222;52.004;5.908;2024-01-30T12:20:58;4.97;;;3.15;;
42036;SDS011;75222;52.004;5.908;2024-01-30T12:23:24;5.55;;;3.20;;
42036;SDS011;75222;52.004;5.908;2024-01-30T12:25:51;4.80;;;3.05;;
42036;SDS011;75222;52.004;5.908;2024-01-30T12:28:17;5.60;;;3.45;;
42036;SDS011;75222;52.004;5.908;2024-01-30T12:30:43;4.85;;;3.63;;
42036;SDS011;75222;52.004;5.908;2024-01-30T12:33:08;5.15;;;3.45;;
42036;SDS011;75222;52.004;5.908;2024-01-30T12:35:35;5.63;;;3.42;;
42036;SDS011;75222;52.004;5.908;2024-01-30T12:38:00;6.05;;;3.75;;
42036;SDS011;75222;52.004;5.908;2024-01-30T12:40:27;7.43;;;3.60;;
42036;SDS011;75222;52.004;5.908;2024-01-30T12:42:53;4.22;;;2.72;;
42036;SDS011;75222;52.004;5.908;2024-01-30T12:45:19;3.95;;;2.47;;
42036;SDS011;75222;52.004;5.908;2024-01-30T12:47:46;4.80;;;2.55;;
42036;SDS011;75222;52.004;5.908;2024-01-30T12:50:12;5.05;;;2.22;;
42036;SDS011;75222;52.004;5.908;2024-01-30T12:52:40;3.38;;;1.77;;
42036;SDS011;75222;52.004;5.908;2024-01-30T12:55:08;2.72;;;1.60;;
42036;SDS011;75222;52.004;5.908;2024-01-30T12:57:33;3.38;;;1.33;;
42036;SDS011;75222;52.004;5.908;2024-01-30T12:59:59;3.22;;;1.48;;
42036;SDS011;75222;52.004;5.908;2024-01-30T13:02:24;1.95;;;1.38;;
42036;SDS011;75222;52.004;5.908;2024-01-30T13:04:51;2.17;;;1.00;;
42036;SDS011;75222;52.004;5.908;2024-01-30T13:07:17;1.83;;;1.00;;
42036;SDS011;75222;52.004;5.908;2024-01-30T13:09:43;2.22;;;1.05;;
42036;SDS011;75222;52.004;5.908;2024-01-30T13:12:09;1.58;;;0.90;;
42036;SDS011;75222;52.004;5.908;2024-01-30T13:14:34;2.42;;;1.00;;
42036;SDS011;75222;52.004;5.908;2024-01-30T13:17:00;1.83;;;1.10;;
42036;SDS011;75222;52.004;5.908;2024-01-30T13:19:25;1.73;;;1.02;;
42036;SDS011;75222;52.004;5.908;2024-01-30T13:21:52;3.17;;;0.95;;
42036;SDS011;75222;52.004;5.908;2024-01-30T13:24:17;1.50;;;0.90;;
42036;SDS011;75222;52.004;5.908;2024-01-30T13:26:46;1.38;;;0.80;;
42036;SDS011;75222;52.004;5.908;2024-01-30T13:29:12;1.65;;;0.70;;
42036;SDS011;75222;52.004;5.908;2024-01-30T13:31:37;1.17;;;1.00;;
42036;SDS011;75222;52.004;5.908;2024-01-30T13:34:04;1.20;;;0.80;;
42036;SDS011;75222;52.004;5.908;2024-01-30T13:36:31;2.20;;;0.90;;
42036;SDS011;75222;52.004;5.908;2024-01-30T13:38:57;1.45;;;0.80;;
42036;SDS011;75222;52.004;5.908;2024-01-30T13:41:23;0.93;;;0.80;;
42036;SDS011;75222;52.004;5.908;2024-01-30T13:43:48;0.82;;;0.70;;
42036;SDS011;75222;52.004;5.908;2024-01-30T13:46:14;0.85;;;0.60;;
42036;SDS011;75222;52.004;5.908;2024-01-30T13:48:40;2.10;;;1.05;;
42036;SDS011;75222;52.004;5.908;2024-01-30T13:51:05;2.97;;;1.77;;
42036;SDS011;75222;52.004;5.908;2024-01-30T13:53:31;2.63;;;1.25;;
42036;SDS011;75222;52.004;5.908;2024-01-30T13:55:56;2.42;;;1.30;;
42036;SDS011;75222;52.004;5.908;2024-01-30T13:58:22;2.47;;;1.10;;
42036;SDS011;75222;52.004;5.908;2024-01-30T14:00:47;4.35;;;1.60;;
42036;SDS011;75222;52.004;5.908;2024-01-30T14:03:14;2.13;;;1.10;;
42036;SDS011;75222;52.004;5.908;2024-01-30T14:05:39;2.08;;;1.20;;
42036;SDS011;75222;52.004;5.908;2024-01-30T14:08:05;3.10;;;1.50;;
42036;SDS011;75222;52.004;5.908;2024-01-30T14:10:32;3.08;;;1.52;;
42036;SDS011;75222;52.004;5.908;2024-01-30T14:12:58;3.65;;;2.00;;
42036;SDS011;75222;52.004;5.908;2024-01-30T14:15:23;2.53;;;1.77;;
42036;SDS011;75222;52.004;5.908;2024-01-30T14:17:49;1.90;;;1.65;;
42036;SDS011;75222;52.004;5.908;2024-01-30T14:20:15;2.75;;;1.60;;
42036;SDS011;75222;52.004;5.908;2024-01-30T14:22:43;3.22;;;2.42;;
42036;SDS011;75222;52.004;5.908;2024-01-30T14:25:09;3.38;;;1.85;;
42036;SDS011;75222;52.004;5.908;2024-01-30T14:27:35;3.28;;;2.10;;
42036;SDS011;75222;52.004;5.908;2024-01-30T14:30:01;3.00;;;1.70;;
42036;SDS011;75222;52.004;5.908;2024-01-30T14:32:28;3.13;;;1.88;;
42036;SDS011;75222;52.004;5.908;2024-01-30T14:34:54;4.93;;;2.00;;
42036;SDS011;75222;52.004;5.908;2024-01-30T14:37:20;4.88;;;2.10;;
42036;SDS011;75222;52.004;5.908;2024-01-30T14:39:46;4.03;;;1.92;;
42036;SDS011;75222;52.004;5.908;2024-01-30T14:42:13;5.40;;;2.20;;